sensor_id;sensor_type;location;lat;lon;timestamp;P1;durP1;ratioP1;P2;durP2;ratioP2
18653;SDS011;9456;47.824;16.228;2023-02-28T00:00:21;14.23;;;9.97;;
18653;SDS011;9456;47.824;16.228;2023-02-28T00:02:50;16.93;;;10.43;;
18653;SDS011;9456;47.824;16.228;2023-02-28T00:05:20;15.40;;;10.60;;
18653;SDS011;9456;47.824;16.228;2023-02-28T00:07:48;14.57;;;10.13;;
18653;SDS011;9456;47.824;16.228;2023-02-28T00:12:46;12.37;;;9.93;;
18653;SDS011;9456;47.824;16.228;2023-02-28T00:15:15;15.60;;;10.37;;
18653;SDS011;9456;47.824;16.228;2023-02-28T00:17:44;16.00;;;10.93;;
18653;SDS011;9456;47.824;16.228;2023-02-28T00:20:13;14.37;;;10.30;;
18653;SDS011;9456;47.824;16.228;2023-02-28T00:22:43;19.43;;;11.20;;
18653;SDS011;9456;47.824;16.228;2023-02-28T00:25:12;16.73;;;10.57;;
18653;SDS011;9456;47.824;16.228;2023-02-28T00:27:40;12.93;;;9.33;;
18653;SDS011;9456;47.824;16.228;2023-02-28T00:30:10;13.93;;;10.27;;
18653;SDS011;9456;47.824;16.228;2023-02-28T00:32:39;16.67;;;10.67;;
18653;SDS011;9456;47.824;16.228;2023-02-28T00:35:09;19.53;;;12.43;;
18653;SDS011;9456;47.824;16.228;2023-02-28T00:37:38;24.83;;;15.27;;
18653;SDS011;9456;47.824;16.228;2023-02-28T00:40:08;29.00;;;15.07;;
18653;SDS011;9456;47.824;16.228;2023-02-28T00:42:38;26.53;;;14.90;;
18653;SDS011;9456;47.824;16.228;2023-02-28T00:45:07;21.67;;;13.27;;
18653;SDS011;9456;47.824;16.228;2023-02-28T00:47:37;17.53;;;10.80;;
18653;SDS011;9456;47.824;16.228;2023-02-28T00:50:07;16.57;;;10.80;;
18653;SDS011;9456;47.824;16.228;2023-02-28T00:52:37;16.87;;;10.97;;
18653;SDS011;9456;47.824;16.228;2023-02-28T00:55:06;14.83;;;10.77;;
18653;SDS011;9456;47.824;16.228;2023-02-28T00:57:36;15.13;;;10.17;;
18653;SDS011;9456;47.824;16.228;2023-02-28T01:00:05;13.40;;;9.57;;
18653;SDS011;9456;47.824;16.228;2023-02-28T01:02:40;13.63;;;10.03;;
18653;SDS011;9456;47.824;16.228;2023-02-28T01:05:09;15.93;;;10.67;;
18653;SDS011;9456;47.824;16.228;2023-02-28T01:07:38;14.83;;;10.20;;
18653;SDS011;9456;47.824;16.228;2023-02-28T01:10:08;14.70;;;10.50;;
18653;SDS011;9456;47.824;16.228;2023-02-28T01:12:38;15.50;;;9.93;;
18653;SDS011;9456;47.824;16.228;2023-02-28T01:15:09;16.60;;;10.37;;
18653;SDS011;9456;47.824;16.228;2023-02-28T01:17:38;15.67;;;10.23;;
18653;SDS011;9456;47.824;16.228;2023-02-28T01:20:08;16.93;;;9.97;;
18653;SDS011;9456;47.824;16.228;2023-02-28T01:22:38;16.43;;;11.07;;
18653;SDS011;9456;47.824;16.228;2023-02-28T01:25:08;15.87;;;10.23;;
18653;SDS011;9456;47.824;16.228;2023-02-28T01:27:37;16.03;;;9.93;;
18653;SDS011;9456;47.824;16.228;2023-02-28T01:30:07;11.67;;;9.07;;
18653;SDS011;9456;47.824;16.228;2023-02-28T01:32:37;15.97;;;10.17;;
18653;SDS011;9456;47.824;16.228;2023-02-28T01:35:07;14.70;;;9.93;;
18653;SDS011;9456;47.824;16.228;2023-02-28T01:37:36;13.73;;;9.30;;
18653;SDS011;9456;47.824;16.228;2023-02-28T01:40:06;15.20;;;9.93;;
18653;SDS011;9456;47.824;16.228;2023-02-28T01:42:36;12.70;;;9.03;;
18653;SDS011;9456;47.824;16.228;2023-02-28T01:45:14;15.33;;;9.87;;
18653;SDS011;9456;47.824;16.228;2023-02-28T01:47:43;14.07;;;10.33;;
18653;SDS011;9456;47.824;16.228;2023-02-28T01:50:13;14.97;;;9.27;;
18653;SDS011;9456;47.824;16.228;2023-02-28T01:52:41;15.93;;;10.43;;
18653;SDS011;9456;47.824;16.228;2023-02-28T01:55:10;15.67;;;10.23;;
18653;SDS011;9456;47.824;16.228;2023-02-28T01:57:40;16.60;;;10.30;;
18653;SDS011;9456;47.824;16.228;2023-02-28T02:00:10;18.13;;;11.30;;
18653;SDS011;9456;47.824;16.228;2023-02-28T02:02:39;15.47;;;11.23;;
18653;SDS011;9456;47.824;16.228;2023-02-28T02:05:10;14.83;;;10.47;;
18653;SDS011;9456;47.824;16.228;2023-02-28T02:07:39;15.87;;;11.17;;
18653;SDS011;9456;47.824;16.228;2023-02-28T02:10:10;19.00;;;11.10;;
18653;SDS011;9456;47.824;16.228;2023-02-28T02:12:50;21.87;;;11.73;;
18653;SDS011;9456;47.824;16.228;2023-02-28T02:15:26;25.70;;;11.63;;
18653;SDS011;9456;47.824;16.228;2023-02-28T02:17:56;14.20;;;9.87;;
18653;SDS011;9456;47.824;16.228;2023-02-28T02:20:31;14.10;;;9.93;;
18653;SDS011;9456;47.824;16.228;2023-02-28T02:23:40;16.47;;;10.73;;
18653;SDS011;9456;47.824;16.228;2023-02-28T02:26:26;17.10;;;11.07;;
18653;SDS011;9456;47.824;16.228;2023-02-28T02:29:01;18.17;;;10.37;;
18653;SDS011;9456;47.824;16.228;2023-02-28T02:31:47;14.10;;;10.63;;
18653;SDS011;9456;47.824;16.228;2023-02-28T02:34:32;17.03;;;10.93;;
18653;SDS011;9456;47.824;16.228;2023-02-28T02:37:10;15.50;;;10.33;;
18653;SDS011;9456;47.824;16.228;2023-02-28T02:39:47;20.73;;;10.87;;
18653;SDS011;9456;47.824;16.228;2023-02-28T02:42:17;15.77;;;10.47;;
18653;SDS011;9456;47.824;16.228;2023-02-28T02:44:46;18.13;;;10.87;;
18653;SDS011;9456;47.824;16.228;2023-02-28T02:47:15;17.57;;;11.83;;
18653;SDS011;9456;47.824;16.228;2023-02-28T02:49:44;13.07;;;10.57;;
18653;SDS011;9456;47.824;16.228;2023-02-28T02:52:13;16.93;;;11.00;;
18653;SDS011;9456;47.824;16.228;2023-02-28T02:54:43;15.67;;;10.53;;
18653;SDS011;9456;47.824;16.228;2023-02-28T02:57:13;20.37;;;11.43;;
18653;SDS011;9456;47.824;16.228;2023-02-28T02:59:40;16.87;;;11.53;;
18653;SDS011;9456;47.824;16.228;2023-02-28T03:02:10;20.83;;;12.40;;
18653;SDS011;9456;47.824;16.228;2023-02-28T03:04:39;18.17;;;12.47;;
18653;SDS011;9456;47.824;16.228;2023-02-28T03:07:08;18.97;;;11.63;;
18653;SDS011;9456;47.824;16.228;2023-02-28T03:09:37;16.43;;;11.93;;
18653;SDS011;9456;47.824;16.228;2023-02-28T03:12:08;18.20;;;11.07;;
18653;SDS011;9456;47.824;16.228;2023-02-28T03:14:41;16.60;;;11.63;;
18653;SDS011;9456;47.824;16.228;2023-02-28T03:17:33;16.67;;;11.43;;
18653;SDS011;9456;47.824;16.228;2023-02-28T03:20:09;17.70;;;10.83;;
18653;SDS011;9456;47.824;16.228;2023-02-28T03:22:59;17.50;;;11.23;;
18653;SDS011;9456;47.824;16.228;2023-02-28T03:25:31;14.30;;;10.40;;
18653;SDS011;9456;47.824;16.228;2023-02-28T03:28:02;17.43;;;10.30;;
18653;SDS011;9456;47.824;16.228;2023-02-28T03:30:34;23.27;;;11.53;;
18653;SDS011;9456;47.824;16.228;2023-02-28T03:33:05;18.03;;;11.07;;
18653;SDS011;9456;47.824;16.228;2023-02-28T03:35:34;20.13;;;11.70;;
18653;SDS011;9456;47.824;16.228;2023-02-28T03:38:03;16.13;;;10.80;;
18653;SDS011;9456;47.824;16.228;2023-02-28T03:40:32;15.93;;;11.30;;
18653;SDS011;9456;47.824;16.228;2023-02-28T03:43:02;15.27;;;10.37;;
18653;SDS011;9456;47.824;16.228;2023-02-28T03:45:30;18.50;;;11.33;;
18653;SDS011;9456;47.824;16.228;2023-02-28T03:48:01;16.23;;;11.30;;
18653;SDS011;9456;47.824;16.228;2023-02-28T03:50:29;15.37;;;10.40;;
18653;SDS011;9456;47.824;16.228;2023-02-28T03:52:58;17.37;;;11.53;;
18653;SDS011;9456;47.824;16.228;2023-02-28T03:55:27;16.57;;;10.10;;
18653;SDS011;9456;47.824;16.228;2023-02-28T03:57:58;16.77;;;10.60;;
18653;SDS011;9456;47.824;16.228;2023-02-28T04:00:27;17.57;;;11.00;;
18653;SDS011;9456;47.824;16.228;2023-02-28T04:02:56;17.97;;;10.60;;
18653;SDS011;9456;47.824;16.228;2023-02-28T04:05:25;15.87;;;10.30;;
18653;SDS011;9456;47.824;16.228;2023-02-28T04:10:34;15.80;;;10.77;;
18653;SDS011;9456;47.824;16.228;2023-02-28T04:13:03;19.50;;;12.70;;
18653;SDS011;9456;47.824;16.228;2023-02-28T04:15:32;17.90;;;12.13;;
18653;SDS011;9456;47.824;16.228;2023-02-28T04:18:07;16.03;;;12.00;;
18653;SDS011;9456;47.824;16.228;2023-02-28T04:20:37;20.80;;;12.07;;
18653;SDS011;9456;47.824;16.228;2023-02-28T04:23:06;17.30;;;12.03;;
18653;SDS011;9456;47.824;16.228;2023-02-28T04:25:35;17.67;;;11.87;;
18653;SDS011;9456;47.824;16.228;2023-02-28T04:28:04;17.37;;;11.80;;
18653;SDS011;9456;47.824;16.228;2023-02-28T04:30:33;15.90;;;11.47;;
18653;SDS011;9456;47.824;16.228;2023-02-28T04:33:02;21.47;;;13.03;;
18653;SDS011;9456;47.824;16.228;2023-02-28T04:35:31;19.03;;;12.30;;
18653;SDS011;9456;47.824;16.228;2023-02-28T04:38:00;20.50;;;13.30;;
18653;SDS011;9456;47.824;16.228;2023-02-28T04:40:29;19.60;;;13.23;;
18653;SDS011;9456;47.824;16.228;2023-02-28T04:42:58;23.07;;;12.73;;
18653;SDS011;9456;47.824;16.228;2023-02-28T04:45:27;21.67;;;13.80;;
18653;SDS011;9456;47.824;16.228;2023-02-28T04:47:56;19.53;;;13.17;;
18653;SDS011;9456;47.824;16.228;2023-02-28T04:50:25;21.30;;;13.60;;
18653;SDS011;9456;47.824;16.228;2023-02-28T04:52:54;23.00;;;13.57;;
18653;SDS011;9456;47.824;16.228;2023-02-28T04:55:23;20.17;;;12.73;;
18653;SDS011;9456;47.824;16.228;2023-02-28T04:57:52;23.30;;;14.00;;
18653;SDS011;9456;47.824;16.228;2023-02-28T05:00:21;20.30;;;14.23;;
18653;SDS011;9456;47.824;16.228;2023-02-28T05:02:50;19.43;;;13.03;;
18653;SDS011;9456;47.824;16.228;2023-02-28T05:05:19;20.97;;;13.00;;
18653;SDS011;9456;47.824;16.228;2023-02-28T05:07:48;19.07;;;12.17;;
18653;SDS011;9456;47.824;16.228;2023-02-28T05:10:18;20.73;;;13.37;;
18653;SDS011;9456;47.824;16.228;2023-02-28T05:12:47;18.70;;;12.50;;
18653;SDS011;9456;47.824;16.228;2023-02-28T05:15:16;17.37;;;11.73;;
18653;SDS011;9456;47.824;16.228;2023-02-28T05:17:45;19.53;;;12.93;;
18653;SDS011;9456;47.824;16.228;2023-02-28T05:20:14;21.03;;;12.70;;
18653;SDS011;9456;47.824;16.228;2023-02-28T05:22:43;18.97;;;12.53;;
18653;SDS011;9456;47.824;16.228;2023-02-28T05:25:13;22.03;;;13.03;;
18653;SDS011;9456;47.824;16.228;2023-02-28T05:27:42;17.93;;;12.27;;
18653;SDS011;9456;47.824;16.228;2023-02-28T05:30:11;17.73;;;12.00;;
18653;SDS011;9456;47.824;16.228;2023-02-28T05:32:41;21.27;;;13.30;;
18653;SDS011;9456;47.824;16.228;2023-02-28T05:35:10;24.30;;;14.47;;
18653;SDS011;9456;47.824;16.228;2023-02-28T05:37:39;25.17;;;15.67;;
18653;SDS011;9456;47.824;16.228;2023-02-28T05:40:08;27.00;;;17.07;;
18653;SDS011;9456;47.824;16.228;2023-02-28T05:42:38;23.97;;;16.67;;
18653;SDS011;9456;47.824;16.228;2023-02-28T05:45:08;25.53;;;14.63;;
18653;SDS011;9456;47.824;16.228;2023-02-28T05:47:38;24.10;;;13.63;;
18653;SDS011;9456;47.824;16.228;2023-02-28T05:50:07;22.13;;;13.03;;
18653;SDS011;9456;47.824;16.228;2023-02-28T05:52:37;24.67;;;13.47;;
18653;SDS011;9456;47.824;16.228;2023-02-28T05:55:07;28.43;;;13.47;;
18653;SDS011;9456;47.824;16.228;2023-02-28T05:57:37;21.90;;;12.13;;
18653;SDS011;9456;47.824;16.228;2023-02-28T06:00:07;19.23;;;11.23;;
18653;SDS011;9456;47.824;16.228;2023-02-28T06:02:37;29.87;;;12.33;;
18653;SDS011;9456;47.824;16.228;2023-02-28T06:05:08;23.00;;;12.57;;
18653;SDS011;9456;47.824;16.228;2023-02-28T06:07:37;26.53;;;12.90;;
18653;SDS011;9456;47.824;16.228;2023-02-28T06:10:07;22.27;;;12.57;;
18653;SDS011;9456;47.824;16.228;2023-02-28T06:12:43;23.67;;;12.97;;
18653;SDS011;9456;47.824;16.228;2023-02-28T06:15:13;23.93;;;13.23;;
18653;SDS011;9456;47.824;16.228;2023-02-28T06:17:41;20.97;;;11.87;;
18653;SDS011;9456;47.824;16.228;2023-02-28T06:20:11;20.97;;;11.93;;
18653;SDS011;9456;47.824;16.228;2023-02-28T06:22:40;17.93;;;12.47;;
18653;SDS011;9456;47.824;16.228;2023-02-28T06:25:09;32.10;;;12.73;;
18653;SDS011;9456;47.824;16.228;2023-02-28T06:27:38;26.73;;;12.03;;
18653;SDS011;9456;47.824;16.228;2023-02-28T06:30:11;28.57;;;12.00;;
18653;SDS011;9456;47.824;16.228;2023-02-28T06:32:41;23.53;;;11.60;;
18653;SDS011;9456;47.824;16.228;2023-02-28T06:35:10;18.53;;;11.10;;
18653;SDS011;9456;47.824;16.228;2023-02-28T06:37:38;21.67;;;12.83;;
18653;SDS011;9456;47.824;16.228;2023-02-28T06:40:09;20.60;;;11.13;;
18653;SDS011;9456;47.824;16.228;2023-02-28T06:42:39;24.07;;;13.30;;
18653;SDS011;9456;47.824;16.228;2023-02-28T06:45:08;18.17;;;11.70;;
18653;SDS011;9456;47.824;16.228;2023-02-28T06:47:39;21.27;;;10.23;;
18653;SDS011;9456;47.824;16.228;2023-02-28T06:50:07;18.67;;;10.77;;
18653;SDS011;9456;47.824;16.228;2023-02-28T06:52:38;15.13;;;9.93;;
18653;SDS011;9456;47.824;16.228;2023-02-28T06:55:07;16.20;;;10.73;;
18653;SDS011;9456;47.824;16.228;2023-02-28T06:57:37;17.87;;;10.90;;
18653;SDS011;9456;47.824;16.228;2023-02-28T07:00:07;16.23;;;11.00;;
18653;SDS011;9456;47.824;16.228;2023-02-28T07:02:37;16.20;;;10.63;;
18653;SDS011;9456;47.824;16.228;2023-02-28T07:05:07;16.90;;;11.63;;
18653;SDS011;9456;47.824;16.228;2023-02-28T07:07:36;16.67;;;12.43;;
18653;SDS011;9456;47.824;16.228;2023-02-28T07:10:06;21.80;;;12.97;;
18653;SDS011;9456;47.824;16.228;2023-02-28T07:12:35;29.33;;;12.17;;
18653;SDS011;9456;47.824;16.228;2023-02-28T07:20:23;16.20;;;10.40;;
18653;SDS011;9456;47.824;16.228;2023-02-28T07:22:52;16.07;;;10.53;;
18653;SDS011;9456;47.824;16.228;2023-02-28T07:25:22;14.23;;;10.47;;
18653;SDS011;9456;47.824;16.228;2023-02-28T07:27:51;15.87;;;10.70;;
18653;SDS011;9456;47.824;16.228;2023-02-28T07:30:20;19.33;;;12.37;;
18653;SDS011;9456;47.824;16.228;2023-02-28T07:32:49;20.00;;;12.40;;
18653;SDS011;9456;47.824;16.228;2023-02-28T07:35:18;18.23;;;11.83;;
18653;SDS011;9456;47.824;16.228;2023-02-28T07:37:47;20.50;;;13.27;;
18653;SDS011;9456;47.824;16.228;2023-02-28T07:40:16;18.90;;;13.60;;
18653;SDS011;9456;47.824;16.228;2023-02-28T07:42:45;21.90;;;13.97;;
18653;SDS011;9456;47.824;16.228;2023-02-28T07:45:14;17.33;;;13.23;;
18653;SDS011;9456;47.824;16.228;2023-02-28T07:47:43;18.50;;;13.23;;
18653;SDS011;9456;47.824;16.228;2023-02-28T07:50:13;18.03;;;13.50;;
18653;SDS011;9456;47.824;16.228;2023-02-28T07:52:41;17.57;;;13.03;;
18653;SDS011;9456;47.824;16.228;2023-02-28T07:55:10;21.37;;;13.70;;
18653;SDS011;9456;47.824;16.228;2023-02-28T07:57:42;19.80;;;12.90;;
18653;SDS011;9456;47.824;16.228;2023-02-28T08:00:13;16.90;;;13.03;;
18653;SDS011;9456;47.824;16.228;2023-02-28T08:02:42;20.47;;;13.40;;
18653;SDS011;9456;47.824;16.228;2023-02-28T08:05:11;25.10;;;13.57;;
18653;SDS011;9456;47.824;16.228;2023-02-28T08:07:40;16.40;;;12.87;;
18653;SDS011;9456;47.824;16.228;2023-02-28T08:10:10;19.93;;;14.20;;
18653;SDS011;9456;47.824;16.228;2023-02-28T08:12:39;20.57;;;13.07;;
18653;SDS011;9456;47.824;16.228;2023-02-28T08:15:09;22.23;;;12.70;;
18653;SDS011;9456;47.824;16.228;2023-02-28T08:17:39;16.87;;;11.77;;
18653;SDS011;9456;47.824;16.228;2023-02-28T08:20:09;15.53;;;11.80;;
18653;SDS011;9456;47.824;16.228;2023-02-28T08:22:39;13.90;;;11.47;;
18653;SDS011;9456;47.824;16.228;2023-02-28T08:25:08;15.73;;;11.03;;
18653;SDS011;9456;47.824;16.228;2023-02-28T08:27:37;14.90;;;11.37;;
18653;SDS011;9456;47.824;16.228;2023-02-28T08:30:08;14.93;;;11.87;;
18653;SDS011;9456;47.824;16.228;2023-02-28T08:32:38;17.10;;;11.87;;
18653;SDS011;9456;47.824;16.228;2023-02-28T08:35:08;16.00;;;11.70;;
18653;SDS011;9456;47.824;16.228;2023-02-28T08:37:37;15.57;;;11.57;;
18653;SDS011;9456;47.824;16.228;2023-02-28T08:40:08;18.07;;;12.37;;
18653;SDS011;9456;47.824;16.228;2023-02-28T08:42:37;18.37;;;13.50;;
18653;SDS011;9456;47.824;16.228;2023-02-28T08:45:07;15.73;;;13.07;;
18653;SDS011;9456;47.824;16.228;2023-02-28T08:47:38;19.73;;;13.83;;
18653;SDS011;9456;47.824;16.228;2023-02-28T08:50:08;19.03;;;13.40;;
18653;SDS011;9456;47.824;16.228;2023-02-28T08:52:37;18.20;;;13.63;;
18653;SDS011;9456;47.824;16.228;2023-02-28T08:55:07;19.40;;;14.37;;
18653;SDS011;9456;47.824;16.228;2023-02-28T08:57:36;17.47;;;13.03;;
18653;SDS011;9456;47.824;16.228;2023-02-28T09:00:07;20.67;;;12.53;;
18653;SDS011;9456;47.824;16.228;2023-02-28T09:02:36;18.23;;;14.20;;
18653;SDS011;9456;47.824;16.228;2023-02-28T09:05:06;19.27;;;14.10;;
18653;SDS011;9456;47.824;16.228;2023-02-28T09:07:36;20.33;;;13.83;;
18653;SDS011;9456;47.824;16.228;2023-02-28T09:10:05;19.30;;;13.90;;
18653;SDS011;9456;47.824;16.228;2023-02-28T09:12:34;16.17;;;13.03;;
18653;SDS011;9456;47.824;16.228;2023-02-28T09:15:04;17.47;;;13.63;;
18653;SDS011;9456;47.824;16.228;2023-02-28T09:17:35;20.37;;;13.63;;
18653;SDS011;9456;47.824;16.228;2023-02-28T09:20:12;19.27;;;14.33;;
18653;SDS011;9456;47.824;16.228;2023-02-28T09:22:41;21.77;;;18.00;;
18653;SDS011;9456;47.824;16.228;2023-02-28T09:25:10;19.67;;;14.87;;
18653;SDS011;9456;47.824;16.228;2023-02-28T09:27:39;20.00;;;15.37;;
18653;SDS011;9456;47.824;16.228;2023-02-28T09:30:09;21.10;;;15.00;;
18653;SDS011;9456;47.824;16.228;2023-02-28T09:32:39;21.63;;;15.93;;
18653;SDS011;9456;47.824;16.228;2023-02-28T09:35:08;23.13;;;16.60;;
18653;SDS011;9456;47.824;16.228;2023-02-28T09:37:37;22.37;;;16.40;;
18653;SDS011;9456;47.824;16.228;2023-02-28T09:40:07;21.50;;;15.93;;
18653;SDS011;9456;47.824;16.228;2023-02-28T09:42:38;24.07;;;16.90;;
18653;SDS011;9456;47.824;16.228;2023-02-28T09:45:10;22.10;;;16.00;;
18653;SDS011;9456;47.824;16.228;2023-02-28T09:47:39;23.50;;;16.20;;
18653;SDS011;9456;47.824;16.228;2023-02-28T09:50:13;23.10;;;16.93;;
18653;SDS011;9456;47.824;16.228;2023-02-28T09:52:38;22.57;;;16.23;;
18653;SDS011;9456;47.824;16.228;2023-02-28T09:55:15;19.77;;;15.23;;
18653;SDS011;9456;47.824;16.228;2023-02-28T09:57:43;21.10;;;15.23;;
18653;SDS011;9456;47.824;16.228;2023-02-28T10:00:14;21.10;;;15.43;;
18653;SDS011;9456;47.824;16.228;2023-02-28T10:02:52;23.63;;;15.53;;
18653;SDS011;9456;47.824;16.228;2023-02-28T10:05:26;21.27;;;15.90;;
18653;SDS011;9456;47.824;16.228;2023-02-28T10:07:58;23.30;;;15.30;;
18653;SDS011;9456;47.824;16.228;2023-02-28T10:10:33;25.37;;;16.07;;
18653;SDS011;9456;47.824;16.228;2023-02-28T10:13:00;19.67;;;14.97;;
18653;SDS011;9456;47.824;16.228;2023-02-28T10:15:30;22.27;;;15.07;;
18653;SDS011;9456;47.824;16.228;2023-02-28T10:17:58;21.70;;;15.50;;
18653;SDS011;9456;47.824;16.228;2023-02-28T10:20:27;22.37;;;15.60;;
18653;SDS011;9456;47.824;16.228;2023-02-28T10:23:03;23.57;;;16.03;;
18653;SDS011;9456;47.824;16.228;2023-02-28T10:25:33;19.93;;;14.90;;
18653;SDS011;9456;47.824;16.228;2023-02-28T10:28:07;19.97;;;14.07;;
18653;SDS011;9456;47.824;16.228;2023-02-28T10:30:36;20.40;;;14.90;;
18653;SDS011;9456;47.824;16.228;2023-02-28T10:33:05;21.00;;;14.80;;
18653;SDS011;9456;47.824;16.228;2023-02-28T10:35:35;18.37;;;14.10;;
18653;SDS011;9456;47.824;16.228;2023-02-28T10:38:09;20.43;;;14.93;;
18653;SDS011;9456;47.824;16.228;2023-02-28T10:40:37;21.50;;;15.50;;
18653;SDS011;9456;47.824;16.228;2023-02-28T10:43:18;19.03;;;15.13;;
18653;SDS011;9456;47.824;16.228;2023-02-28T10:45:36;20.47;;;15.63;;
18653;SDS011;9456;47.824;16.228;2023-02-28T10:48:10;19.70;;;14.73;;
18653;SDS011;9456;47.824;16.228;2023-02-28T10:50:39;23.97;;;15.93;;
18653;SDS011;9456;47.824;16.228;2023-02-28T10:53:13;20.83;;;14.70;;
18653;SDS011;9456;47.824;16.228;2023-02-28T10:55:45;21.17;;;15.37;;
18653;SDS011;9456;47.824;16.228;2023-02-28T10:58:24;26.70;;;14.70;;
18653;SDS011;9456;47.824;16.228;2023-02-28T11:00:52;23.20;;;15.27;;
18653;SDS011;9456;47.824;16.228;2023-02-28T11:03:28;22.23;;;16.83;;
18653;SDS011;9456;47.824;16.228;2023-02-28T11:05:57;19.90;;;15.07;;
18653;SDS011;9456;47.824;16.228;2023-02-28T11:08:26;19.70;;;15.47;;
18653;SDS011;9456;47.824;16.228;2023-02-28T11:10:55;23.40;;;15.73;;
18653;SDS011;9456;47.824;16.228;2023-02-28T11:13:26;20.80;;;14.50;;
18653;SDS011;9456;47.824;16.228;2023-02-28T11:15:55;19.73;;;15.10;;
18653;SDS011;9456;47.824;16.228;2023-02-28T11:18:24;22.43;;;15.20;;
18653;SDS011;9456;47.824;16.228;2023-02-28T11:20:53;20.77;;;14.57;;
18653;SDS011;9456;47.824;16.228;2023-02-28T11:23:30;21.43;;;15.60;;
18653;SDS011;9456;47.824;16.228;2023-02-28T11:26:00;20.63;;;15.40;;
18653;SDS011;9456;47.824;16.228;2023-02-28T11:28:29;24.57;;;16.17;;
18653;SDS011;9456;47.824;16.228;2023-02-28T11:31:03;17.00;;;13.80;;
18653;SDS011;9456;47.824;16.228;2023-02-28T11:33:37;18.57;;;13.80;;
18653;SDS011;9456;47.824;16.228;2023-02-28T11:36:03;19.00;;;14.20;;
18653;SDS011;9456;47.824;16.228;2023-02-28T11:38:32;21.20;;;14.50;;
18653;SDS011;9456;47.824;16.228;2023-02-28T11:41:07;20.37;;;14.77;;
18653;SDS011;9456;47.824;16.228;2023-02-28T11:43:41;27.07;;;15.83;;
18653;SDS011;9456;47.824;16.228;2023-02-28T11:46:17;24.57;;;17.10;;
18653;SDS011;9456;47.824;16.228;2023-02-28T11:48:49;24.30;;;16.77;;
18653;SDS011;9456;47.824;16.228;2023-02-28T11:51:21;25.70;;;17.93;;
18653;SDS011;9456;47.824;16.228;2023-02-28T11:53:55;26.93;;;17.87;;
18653;SDS011;9456;47.824;16.228;2023-02-28T11:56:36;26.63;;;17.07;;
18653;SDS011;9456;47.824;16.228;2023-02-28T11:59:14;26.63;;;18.13;;
18653;SDS011;9456;47.824;16.228;2023-02-28T12:01:47;22.73;;;16.17;;
18653;SDS011;9456;47.824;16.228;2023-02-28T12:04:24;31.13;;;17.87;;
18653;SDS011;9456;47.824;16.228;2023-02-28T12:06:55;22.70;;;15.57;;
18653;SDS011;9456;47.824;16.228;2023-02-28T12:09:34;21.87;;;15.30;;
18653;SDS011;9456;47.824;16.228;2023-02-28T12:12:06;19.10;;;15.03;;
18653;SDS011;9456;47.824;16.228;2023-02-28T12:14:46;22.00;;;14.97;;
18653;SDS011;9456;47.824;16.228;2023-02-28T12:17:32;21.20;;;14.80;;
18653;SDS011;9456;47.824;16.228;2023-02-28T12:20:08;19.17;;;14.50;;
18653;SDS011;9456;47.824;16.228;2023-02-28T12:22:38;19.70;;;14.63;;
18653;SDS011;9456;47.824;16.228;2023-02-28T12:28:25;23.13;;;13.60;;
18653;SDS011;9456;47.824;16.228;2023-02-28T12:30:54;19.17;;;14.47;;
18653;SDS011;9456;47.824;16.228;2023-02-28T12:33:24;18.93;;;14.60;;
18653;SDS011;9456;47.824;16.228;2023-02-28T12:35:54;16.53;;;12.57;;
18653;SDS011;9456;47.824;16.228;2023-02-28T12:38:23;15.73;;;12.50;;
18653;SDS011;9456;47.824;16.228;2023-02-28T12:40:52;16.60;;;13.03;;
18653;SDS011;9456;47.824;16.228;2023-02-28T12:43:21;15.37;;;12.07;;
18653;SDS011;9456;47.824;16.228;2023-02-28T12:45:51;17.47;;;12.20;;
18653;SDS011;9456;47.824;16.228;2023-02-28T12:48:21;13.63;;;10.87;;
18653;SDS011;9456;47.824;16.228;2023-02-28T12:50:49;13.60;;;11.30;;
18653;SDS011;9456;47.824;16.228;2023-02-28T12:53:21;16.10;;;12.07;;
18653;SDS011;9456;47.824;16.228;2023-02-28T12:55:50;19.33;;;12.17;;
18653;SDS011;9456;47.824;16.228;2023-02-28T12:58:20;15.57;;;11.90;;
18653;SDS011;9456;47.824;16.228;2023-02-28T13:00:53;20.13;;;12.37;;
18653;SDS011;9456;47.824;16.228;2023-02-28T13:03:40;16.43;;;12.80;;
18653;SDS011;9456;47.824;16.228;2023-02-28T13:06:26;18.43;;;13.73;;
18653;SDS011;9456;47.824;16.228;2023-02-28T13:09:09;16.53;;;13.03;;
18653;SDS011;9456;47.824;16.228;2023-02-28T13:11:40;21.90;;;13.60;;
18653;SDS011;9456;47.824;16.228;2023-02-28T13:14:18;18.17;;;12.87;;
18653;SDS011;9456;47.824;16.228;2023-02-28T13:16:49;17.60;;;13.33;;
18653;SDS011;9456;47.824;16.228;2023-02-28T13:19:25;17.03;;;12.87;;
18653;SDS011;9456;47.824;16.228;2023-02-28T13:21:53;22.40;;;14.03;;
18653;SDS011;9456;47.824;16.228;2023-02-28T13:27:24;18.47;;;12.07;;
18653;SDS011;9456;47.824;16.228;2023-02-28T13:29:58;17.33;;;12.50;;
18653;SDS011;9456;47.824;16.228;2023-02-28T13:32:32;17.57;;;12.70;;
18653;SDS011;9456;47.824;16.228;2023-02-28T13:38:15;15.93;;;11.93;;
18653;SDS011;9456;47.824;16.228;2023-02-28T13:40:50;16.70;;;12.37;;
18653;SDS011;9456;47.824;16.228;2023-02-28T13:43:19;18.37;;;13.20;;
18653;SDS011;9456;47.824;16.228;2023-02-28T13:46:12;21.87;;;12.67;;
18653;SDS011;9456;47.824;16.228;2023-02-28T13:48:39;17.00;;;13.63;;
18653;SDS011;9456;47.824;16.228;2023-02-28T13:54:05;17.00;;;12.50;;
18653;SDS011;9456;47.824;16.228;2023-02-28T13:56:42;14.43;;;11.20;;
18653;SDS011;9456;47.824;16.228;2023-02-28T13:59:16;16.27;;;12.37;;
18653;SDS011;9456;47.824;16.228;2023-02-28T14:01:56;16.10;;;11.93;;
18653;SDS011;9456;47.824;16.228;2023-02-28T14:07:31;16.43;;;12.23;;
18653;SDS011;9456;47.824;16.228;2023-02-28T14:10:01;17.73;;;12.80;;
18653;SDS011;9456;47.824;16.228;2023-02-28T14:15:27;19.27;;;13.50;;
18653;SDS011;9456;47.824;16.228;2023-02-28T14:18:21;18.43;;;13.43;;
18653;SDS011;9456;47.824;16.228;2023-02-28T14:20:52;18.37;;;12.97;;
18653;SDS011;9456;47.824;16.228;2023-02-28T14:26:37;15.10;;;11.67;;
18653;SDS011;9456;47.824;16.228;2023-02-28T14:29:33;15.93;;;10.87;;
18653;SDS011;9456;47.824;16.228;2023-02-28T14:32:11;15.80;;;11.77;;
18653;SDS011;9456;47.824;16.228;2023-02-28T14:34:41;15.83;;;12.77;;
18653;SDS011;9456;47.824;16.228;2023-02-28T14:37:10;15.93;;;11.63;;
18653;SDS011;9456;47.824;16.228;2023-02-28T14:39:40;18.33;;;12.03;;
18653;SDS011;9456;47.824;16.228;2023-02-28T14:42:25;17.93;;;11.80;;
18653;SDS011;9456;47.824;16.228;2023-02-28T14:44:57;16.20;;;12.90;;
18653;SDS011;9456;47.824;16.228;2023-02-28T14:47:27;18.03;;;12.57;;
18653;SDS011;9456;47.824;16.228;2023-02-28T14:49:55;21.83;;;12.30;;
18653;SDS011;9456;47.824;16.228;2023-02-28T14:52:25;16.33;;;12.70;;
18653;SDS011;9456;47.824;16.228;2023-02-28T14:54:54;17.63;;;12.70;;
18653;SDS011;9456;47.824;16.228;2023-02-28T14:57:23;19.03;;;13.30;;
18653;SDS011;9456;47.824;16.228;2023-02-28T14:59:58;18.93;;;13.30;;
18653;SDS011;9456;47.824;16.228;2023-02-28T15:02:30;16.00;;;12.90;;
18653;SDS011;9456;47.824;16.228;2023-02-28T15:04:59;14.83;;;12.00;;
18653;SDS011;9456;47.824;16.228;2023-02-28T15:07:27;22.43;;;13.63;;
18653;SDS011;9456;47.824;16.228;2023-02-28T15:10:14;17.73;;;14.17;;
18653;SDS011;9456;47.824;16.228;2023-02-28T15:12:45;18.30;;;13.57;;
18653;SDS011;9456;47.824;16.228;2023-02-28T15:15:16;17.00;;;13.87;;